Time;durP1;ratioP1;P1;durP2;ratioP2;P2;SDS_P1;SDS_P2;PMS_P1;PMS_P2;Temp;Humidity;BMP_temperature;BMP_pressure;BME280_temperature;BME280_humidity;BME280_pressure;Samples;Min_cycle;Max_cycle;Signal;HPM_P1;HPM_P2
2022/09/11 00:01:28;;;;;;;5.30;1.42;;;;;;;15.64;36.25;100978.91;1850191;77;20905;-88
2022/09/11 00:03:55;;;;;;;2.17;1.32;;;;;;;15.63;36.30;100979.87;1852701;77;20912;-89
2022/09/11 00:06:23;;;;;;;5.87;1.37;;;;;;;15.61;36.46;100980.95;1851178;77;20846;-88
2022/09/11 00:08:59;;;;;;;3.72;1.30;;;;;;;15.58;36.51;100979.36;1849697;76;21092;-90
2022/09/11 00:11:23;;;;;;;7.03;1.80;;;;;;;15.57;36.59;100994.03;1849412;77;20896;-89
2022/09/11 00:13:50;;;;;;;2.95;1.22;;;;;;;15.54;36.53;100984.54;1849755;77;20925;-87
2022/09/11 00:16:28;;;;;;;3.95;1.25;;;;;;;15.52;36.58;100984.64;1851687;77;20890;-88
2022/09/11 00:18:59;;;;;;;2.17;1.30;;;;;;;15.52;36.72;100981.17;1849847;77;20916;-89
2022/09/11 00:21:26;;;;;;;5.60;1.07;;;;;;;15.48;36.65;100978.38;1849568;77;21180;-88
2022/09/11 00:23:52;;;;;;;5.30;1.92;;;;;;;15.47;36.69;100984.61;1849651;77;20834;-89
2022/09/11 00:26:20;;;;;;;2.80;1.20;;;;;;;15.42;36.75;100965.63;1849586;77;20925;-88
2022/09/11 00:28:49;;;;;;;8.03;1.60;;;;;;;15.41;36.86;100964.78;1851635;77;20985;-87
2022/09/11 00:31:19;;;;;;;6.33;1.95;;;;;;;15.41;36.93;100961.31;1849892;76;20862;-87
2022/09/11 00:33:45;;;;;;;6.58;1.50;;;;;;;15.37;36.98;100959.36;1849494;77;21209;-89
2022/09/11 00:36:16;;;;;;;6.90;1.30;;;;;;;15.36;37.08;100945.77;1849540;77;20866;-88
2022/09/11 00:38:45;;;;;;;4.12;1.60;;;;;;;15.34;37.07;100970.17;1849648;76;20881;-88
2022/09/11 00:41:20;;;;;;;10.65;1.98;;;;;;;15.31;37.07;100968.57;1849583;77;21338;-89
2022/09/11 00:43:54;;;;;;;4.92;1.22;;;;;;;15.26;37.40;100949.59;1849129;77;20988;-87
2022/09/11 00:46:38;;;;;;;9.08;1.77;;;;;;;15.26;37.40;100949.59;1849515;77;21104;-89
2022/09/11 00:49:16;;;;;;;8.90;1.80;;;;;;;15.25;37.42;100935.16;1854111;77;21361;-86
2022/09/11 00:51:46;;;;;;;7.85;1.42;;;;;;;15.23;37.43;100928.69;1860069;77;20942;-87
2022/09/11 00:54:18;;;;;;;3.00;1.32;;;;;;;15.17;37.52;100945.48;1860323;77;20868;-88
2022/09/11 00:56:44;;;;;;;5.95;1.70;;;;;;;15.17;37.52;100945.48;1860664;76;20828;-88
2022/09/11 00:59:12;;;;;;;4.70;1.20;;;;;;;15.16;37.77;100951.21;1862943;76;21164;-85
2022/09/11 01:01:38;;;;;;;2.83;1.60;;;;;;;15.12;37.83;100942.69;1861763;77;20903;-86
2022/09/11 01:04:05;;;;;;;6.42;1.62;;;;;;;15.10;37.85;100946.41;1860827;76;20899;-86
2022/09/11 01:06:33;;;;;;;3.52;1.42;;;;;;;15.07;38.02;100957.18;1860263;77;20900;-87
2022/09/11 01:08:59;;;;;;;4.45;1.35;;;;;;;15.05;37.96;100951.16;1860695;77;21407;-86
2022/09/11 01:11:52;;;;;;;6.30;1.10;;;;;;;15.00;38.50;100950.67;1860435;77;21964;-87
2022/09/11 01:14:48;;;;;;;6.62;1.55;;;;;;;15.00;38.50;100950.67;1860258;77;20986;-87
2022/09/11 01:17:56;;;;;;;3.22;1.47;;;;;;;14.94;38.07;100954.62;1860187;76;20899;-88
2022/09/11 01:20:49;;;;;;;4.62;1.32;;;;;;;14.94;38.07;100954.62;1860097;76;20871;-87
2022/09/11 01:23:43;;;;;;;6.80;1.10;;;;;;;14.89;38.40;100942.20;1862474;77;20986;-86
2022/09/11 01:26:43;;;;;;;4.70;1.65;;;;;;;14.89;38.40;100942.20;1862942;77;21336;-88
2022/09/11 01:29:18;;;;;;;2.55;1.37;;;;;;;14.85;38.38;100950.84;1860210;77;20958;-87
2022/09/11 01:32:06;;;;;;;3.75;1.22;;;;;;;14.81;38.39;100945.42;1860252;76;20926;-88
2022/09/11 01:35:07;;;;;;;2.98;1.40;;;;;;;14.76;38.68;100953.30;1808987;78;20929;-88
2022/09/11 01:37:53;;;;;;;13.20;1.72;;;;;;;14.73;38.62;100932.41;1790837;79;21384;-87
2022/09/11 01:40:25;;;;;;;1.77;0.95;;;;;;;14.70;38.77;100939.59;1756399;81;21639;-84
2022/09/11 01:42:53;;;;;;;4.97;1.10;;;;;;;14.64;39.14;100915.44;1794362;80;20934;-87
2022/09/11 01:45:22;;;;;;;3.52;1.15;;;;;;;14.62;38.73;100907.62;1755259;81;20935;-88
2022/09/11 01:47:52;;;;;;;3.17;0.98;;;;;;;14.62;38.73;100907.62;1793133;80;20911;-91
2022/09/11 01:50:17;;;;;;;7.58;1.27;;;;;;;14.61;38.75;100899.83;1755104;81;20841;-87
2022/09/11 01:52:52;;;;;;;7.65;1.60;;;;;;;14.59;39.03;100905.69;1793140;80;21720;-89
2022/09/11 01:55:27;;;;;;;3.87;1.20;;;;;;;14.56;38.92;100890.06;1755258;81;20935;-88
2022/09/11 01:58:16;;;;;;;1.80;1.17;;;;;;;14.54;39.25;100884.88;1755439;80;20945;-88
2022/09/11 02:00:48;;;;;;;5.75;1.40;;;;;;;14.51;39.38;100875.36;1793226;80;20896;-90
2022/09/11 02:03:18;;;;;;;6.03;1.05;;;;;;;14.48;39.47;100874.28;1755544;80;20899;-88
2022/09/11 02:05:50;;;;;;;3.00;1.35;;;;;;;14.46;39.77;100877.50;1792990;80;21908;-88
2022/09/11 02:08:27;;;;;;;5.90;1.20;;;;;;;14.45;39.62;100881.56;1792697;80;20939;-88
2022/09/11 02:11:02;;;;;;;4.70;1.15;;;;;;;14.43;39.62;100881.70;1755425;81;20845;-89
2022/09/11 02:13:56;;;;;;;1.87;1.07;;;;;;;14.40;39.73;100880.58;1755529;81;20970;-89
2022/09/11 02:16:52;;;;;;;4.80;1.42;;;;;;;14.39;39.78;100878.91;1800215;77;20978;-87
2022/09/11 02:19:23;;;;;;;4.28;1.57;;;;;;;14.36;39.84;100875.63;1862976;76;21200;-87
2022/09/11 02:21:49;;;;;;;6.80;1.50;;;;;;;14.34;39.97;100879.72;1860920;77;20950;-86
2022/09/11 02:24:16;;;;;;;2.95;1.07;;;;;;;14.31;40.02;100874.16;1831210;77;20848;-88
2022/09/11 02:26:49;;;;;;;3.98;1.37;;;;;;;14.28;40.13;100855.92;1860011;77;20994;-87
2022/09/11 02:29:16;;;;;;;5.03;1.30;;;;;;;14.33;40.21;100873.23;1859184;76;20879;-86
2022/09/11 02:31:42;;;;;;;8.18;1.30;;;;;;;14.30;40.33;100871.17;1858069;76;21076;-87
2022/09/11 02:34:10;;;;;;;4.10;1.40;;;;;;;14.29;40.31;100875.23;1861227;77;20856;-86
2022/09/11 02:37:07;;;;;;;2.02;1.20;;;;;;;14.29;40.42;100869.50;1861637;77;21412;-86
2022/09/11 02:40:11;;;;;;;6.65;1.60;;;;;;;14.28;40.45;100870.44;1860451;77;21360;-84
2022/09/11 02:42:53;;;;;;;2.30;0.93;;;;;;;14.26;40.57;100871.50;1861224;76;20934;-87
2022/09/11 02:45:51;;;;;;;2.05;1.30;;;;;;;14.23;40.66;100856.74;1862936;76;21116;-86
2022/09/11 02:48:35;;;;;;;3.42;1.70;;;;;;;14.20;40.75;100852.15;1860557;76;20974;-86
2022/09/11 02:51:20;;;;;;;5.12;1.60;;;;;;;14.20;40.72;100856.11;1849430;77;20822;-88
2022/09/11 02:54:01;;;;;;;4.12;1.20;;;;;;;14.18;40.85;100858.01;1849193;77;20972;-87
2022/09/11 02:56:51;;;;;;;3.67;1.15;;;;;;;14.17;40.95;100858.49;1849069;77;20921;-88
2022/09/11 02:59:34;;;;;;;4.55;1.22;;;;;;;14.16;41.03;100858.59;1817087;77;21093;-87
2022/09/11 03:02:01;;;;;;;2.67;1.50;;;;;;;14.14;41.08;100853.45;1793270;77;20877;-88
2022/09/11 03:04:28;;;;;;;5.10;1.47;;;;;;;14.14;41.11;100856.09;1849287;77;20945;-87
2022/09/11 03:06:57;;;;;;;3.52;2.37;;;;;;;14.13;41.15;100851.75;1851031;77;20913;-88
2022/09/11 03:09:23;;;;;;;4.55;1.42;;;;;;;14.13;41.27;100850.91;1849208;77;20873;-87
2022/09/11 03:11:54;;;;;;;2.50;1.98;;;;;;;14.09;41.32;100852.46;1849038;77;21148;-86
2022/09/11 03:14:20;;;;;;;4.12;1.40;;;;;;;14.08;41.34;100841.53;1849250;77;20894;-87
2022/09/11 03:16:48;;;;;;;12.20;1.30;;;;;;;14.08;41.43;100836.25;1849227;77;20936;-88
2022/09/11 03:19:16;;;;;;;1.67;0.95;;;;;;;14.07;41.33;100837.67;1849277;77;20908;-88
2022/09/11 03:21:43;;;;;;;2.90;1.10;;;;;;;14.06;41.53;100839.95;1849264;77;20878;-87
2022/09/11 03:24:09;;;;;;;4.03;1.27;;;;;;;14.07;41.70;100841.17;1849265;77;21204;-87
2022/09/11 03:26:36;;;;;;;5.60;1.22;;;;;;;14.07;41.70;100841.17;1849206;77;20952;-89
2022/09/11 03:29:03;;;;;;;3.17;1.35;;;;;;;14.05;41.25;100825.06;1849287;77;20850;-86
2022/09/11 03:31:31;;;;;;;5.05;0.93;;;;;;;14.05;41.25;100825.06;1850179;77;20925;-85
2022/09/11 03:33:58;;;;;;;4.22;0.95;;;;;;;14.07;41.55;100833.72;1852735;77;21118;-87
2022/09/11 03:36:25;;;;;;;4.05;1.90;;;;;;;14.07;41.58;100818.76;1826748;77;21083;-87
2022/09/11 03:38:54;;;;;;;3.37;1.30;;;;;;;14.09;41.44;100814.22;1826467;77;20955;-89
2022/09/11 03:41:20;;;;;;;1.75;0.93;;;;;;;14.09;41.44;100814.22;1852365;77;20976;-86
2022/09/11 03:43:47;;;;;;;3.47;1.42;;;;;;;14.14;41.51;100814.34;1852921;77;20976;-88
2022/09/11 03:46:14;;;;;;;2.52;1.10;;;;;;;14.14;41.51;100814.34;1827025;77;20968;-88
2022/09/11 03:48:40;;;;;;;4.15;1.65;;;;;;;14.15;41.51;100810.77;1852891;77;21211;-88
2022/09/11 03:51:07;;;;;;;6.65;1.10;;;;;;;14.15;41.51;100810.77;1862197;77;20954;-88
2022/09/11 03:53:34;;;;;;;3.42;1.30;;;;;;;14.13;41.57;100817.45;1863669;77;20899;-88
2022/09/11 03:56:03;;;;;;;2.67;1.20;;;;;;;14.13;41.59;100808.71;1863622;77;20970;-85
2022/09/11 03:58:32;;;;;;;6.17;1.37;;;;;;;14.13;41.64;100795.53;1863644;77;20876;-88
2022/09/11 04:00:59;;;;;;;3.87;1.80;;;;;;;14.18;41.48;100802.62;1863780;77;21195;-87
2022/09/11 04:03:25;;;;;;;4.50;1.25;;;;;;;14.18;41.48;100802.62;1863700;77;20797;-89
2022/09/11 04:05:59;;;;;;;2.95;1.35;;;;;;;14.18;41.47;100796.86;1863097;77;20839;-88
2022/09/11 04:08:32;;;;;;;2.90;1.10;;;;;;;14.20;41.45;100803.35;1863827;77;20966;-90
2022/09/11 04:10:57;;;;;;;2.25;0.93;;;;;;;14.20;41.45;100800.72;1862980;77;20903;-88
2022/09/11 04:13:33;;;;;;;5.47;1.77;;;;;;;14.21;41.72;100802.42;1863643;77;21182;-88
2022/09/11 04:16:03;;;;;;;4.37;1.22;;;;;;;14.23;41.59;100796.56;1861765;77;20918;-89
2022/09/11 04:18:33;;;;;;;4.72;1.15;;;;;;;14.25;41.61;100796.80;1861223;77;20895;-87
2022/09/11 04:21:09;;;;;;;2.60;1.12;;;;;;;14.28;41.66;100790.46;1857517;76;21462;-86
2022/09/11 04:23:36;;;;;;;5.92;1.15;;;;;;;14.29;41.26;100789.49;1861062;77;21001;-86
2022/09/11 04:26:06;;;;;;;3.95;1.27;;;;;;;14.28;41.14;100777.27;1860892;77;21784;-89
2022/09/11 04:28:34;;;;;;;2.77;0.90;;;;;;;14.26;41.33;100776.05;1857283;76;20907;-88
2022/09/11 04:31:03;;;;;;;3.20;1.35;;;;;;;14.27;41.20;100765.02;1862368;77;20915;-83
2022/09/11 04:33:31;;;;;;;7.72;1.12;;;;;;;14.27;41.20;100765.02;1860445;77;20839;-89
2022/09/11 04:36:05;;;;;;;5.60;1.05;;;;;;;14.25;41.09;100780.98;1830288;77;20985;-89
2022/09/11 04:38:32;;;;;;;11.22;0.85;;;;;;;14.25;41.37;100786.25;1860475;76;21773;-88
2022/09/11 04:41:02;;;;;;;1.10;0.88;;;;;;;14.26;41.30;100793.69;1860211;77;21455;-89
2022/09/11 04:43:30;;;;;;;3.85;1.15;;;;;;;14.26;41.37;100787.09;1860183;77;21419;-89
2022/09/11 04:46:11;;;;;;;3.27;1.17;;;;;;;14.28;41.39;100782.55;1860074;77;21428;-90
2022/09/11 04:48:50;;;;;;;3.67;1.22;;;;;;;14.30;41.20;100781.96;1820350;77;20979;-90
2022/09/11 04:51:25;;;;;;;3.83;1.27;;;;;;;14.30;41.22;100778.84;1850771;77;21233;-89
2022/09/11 04:53:58;;;;;;;3.30;1.30;;;;;;;14.34;41.46;100786.52;1849604;77;20965;-91
2022/09/11 04:56:24;;;;;;;3.05;1.22;;;;;;;14.36;41.25;100794.71;1848398;77;21430;-91
2022/09/11 04:58:57;;;;;;;4.20;1.35;;;;;;;14.38;41.44;100798.53;1848871;77;20909;-89
2022/09/11 05:01:25;;;;;;;3.17;1.63;;;;;;;14.40;41.33;100797.46;1850122;77;20900;-90
2022/09/11 05:03:55;;;;;;;3.42;1.42;;;;;;;14.43;41.20;100801.22;1849591;76;21691;-89
2022/09/11 05:06:22;;;;;;;6.97;2.45;;;;;;;14.43;41.20;100801.22;1849286;77;21936;-91
2022/09/11 05:08:49;;;;;;;3.60;1.32;;;;;;;14.44;41.19;100798.09;1849560;77;20960;-88
2022/09/11 05:11:24;;;;;;;7.12;2.00;;;;;;;14.44;41.26;100804.20;1850181;77;20889;-89
2022/09/11 05:13:52;;;;;;;2.35;1.35;;;;;;;14.44;41.26;100804.20;1852081;77;20909;-90
2022/09/11 05:16:20;;;;;;;3.08;1.32;;;;;;;14.47;41.50;100796.08;1849343;77;21834;-89
2022/09/11 05:18:51;;;;;;;2.50;1.47;;;;;;;14.48;41.52;100804.34;1849258;76;21516;-87
2022/09/11 05:21:23;;;;;;;5.53;1.37;;;;;;;14.49;41.45;100795.95;1848802;77;20878;-86
2022/09/11 05:23:54;;;;;;;6.55;1.85;;;;;;;14.47;41.37;100783.34;1850053;76;20940;-89
2022/09/11 05:26:29;;;;;;;1.35;1.20;;;;;;;14.47;41.62;100786.84;1852692;77;21093;-89
2022/09/11 05:28:59;;;;;;;3.17;1.50;;;;;;;14.48;41.54;100781.92;1851506;77;21072;-88
2022/09/11 05:31:25;;;;;;;8.48;1.22;;;;;;;14.48;41.73;100791.16;1824171;77;21071;-89
2022/09/11 05:33:54;;;;;;;4.15;1.45;;;;;;;14.49;41.58;100789.35;1849568;77;20873;-89
2022/09/11 05:36:22;;;;;;;6.40;1.50;;;;;;;14.48;41.81;100785.04;1849613;77;20849;-89
2022/09/11 05:38:48;;;;;;;4.90;0.90;;;;;;;14.48;41.77;100785.04;1850135;77;20917;-89
2022/09/11 05:41:16;;;;;;;4.85;1.95;;;;;;;14.48;42.10;100783.23;1849872;77;20917;-89
2022/09/11 05:43:43;;;;;;;4.45;1.55;;;;;;;14.46;42.08;100781.19;1849697;77;21431;-88
2022/09/11 05:46:12;;;;;;;2.17;1.35;;;;;;;14.44;42.14;100772.54;1824060;77;20858;-88
2022/09/11 05:48:39;;;;;;;3.62;2.10;;;;;;;14.49;42.19;100782.27;1850057;77;20933;-87
2022/09/11 05:51:15;;;;;;;2.42;1.42;;;;;;;14.51;42.18;100775.08;1858249;75;20867;-87
2022/09/11 05:53:42;;;;;;;3.42;1.17;;;;;;;14.54;42.31;100775.81;1861088;77;21340;-89
2022/09/11 05:56:19;;;;;;;4.50;1.32;;;;;;;14.57;42.42;100763.27;1862544;76;20864;-84
2022/09/11 05:58:47;;;;;;;5.45;2.02;;;;;;;14.60;42.77;100763.03;1863533;77;20884;-90
2022/09/11 06:01:17;;;;;;;3.85;1.30;;;;;;;14.60;42.77;100763.03;1863215;77;20903;-87
2022/09/11 06:03:47;;;;;;;1.57;1.35;;;;;;;14.62;42.46;100760.30;1863155;77;20872;-87
2022/09/11 06:06:17;;;;;;;5.45;0.90;;;;;;;14.61;42.69;100752.02;1863020;76;21171;-90
2022/09/11 06:08:47;;;;;;;6.20;1.42;;;;;;;14.60;42.81;100750.32;1862723;77;21528;-89
2022/09/11 06:11:16;;;;;;;5.83;1.70;;;;;;;14.65;42.46;100755.64;1862747;77;20895;-88
2022/09/11 06:13:45;;;;;;;3.42;1.17;;;;;;;14.65;42.46;100755.64;1862996;77;20860;-88
2022/09/11 06:16:20;;;;;;;5.47;1.70;;;;;;;14.68;42.76;100746.64;1862905;77;20888;-89
2022/09/11 06:18:50;;;;;;;4.92;1.37;;;;;;;14.70;42.88;100742.92;1863023;77;21315;-89
2022/09/11 06:21:19;;;;;;;11.48;1.75;;;;;;;14.73;42.81;100735.25;1862979;76;20966;-87
2022/09/11 06:23:51;;;;;;;2.80;1.42;;;;;;;14.75;42.86;100729.86;1860242;77;20864;-90
2022/09/11 06:26:21;;;;;;;7.58;1.80;;;;;;;14.77;42.66;100735.37;1863330;77;20954;-90
2022/09/11 06:28:49;;;;;;;5.05;1.47;;;;;;;14.78;42.75;100737.05;1863550;77;20903;-87
2022/09/11 06:31:19;;;;;;;3.25;1.40;;;;;;;14.81;42.67;100728.08;1863157;77;21188;-88
2022/09/11 06:33:47;;;;;;;4.20;1.40;;;;;;;14.81;42.69;100726.27;1863343;77;20978;-87
2022/09/11 06:36:18;;;;;;;3.83;1.70;;;;;;;14.84;42.75;100714.14;1863599;77;20883;-88
2022/09/11 06:38:48;;;;;;;5.42;1.52;;;;;;;14.87;42.78;100717.89;1863431;77;20876;-88
2022/09/11 06:41:15;;;;;;;5.87;1.40;;;;;;;14.90;42.47;100712.85;1832747;77;20883;-88
2022/09/11 06:43:42;;;;;;;7.95;1.70;;;;;;;14.91;42.48;100714.52;1863607;77;21373;-88
2022/09/11 06:46:14;;;;;;;3.20;1.67;;;;;;;14.95;42.62;100720.42;1863138;77;20911;-87
2022/09/11 06:48:44;;;;;;;5.87;1.70;;;;;;;14.96;42.54;100717.64;1862839;77;20903;-90
2022/09/11 06:51:19;;;;;;;7.10;3.37;;;;;;;14.99;42.56;100722.70;1861476;77;20926;-90
2022/09/11 06:53:45;;;;;;;10.53;8.10;;;;;;;15.01;42.58;100718.63;1859582;77;20871;-90
2022/09/11 06:56:17;;;;;;;7.20;5.42;;;;;;;15.04;42.67;100722.34;1860331;77;21072;-90
2022/09/11 06:58:45;;;;;;;6.25;2.90;;;;;;;15.05;42.73;100711.67;1860277;77;20824;-89
2022/09/11 07:01:17;;;;;;;3.50;1.80;;;;;;;15.09;42.68;100714.90;1860328;76;20998;-89
2022/09/11 07:03:47;;;;;;;4.95;1.80;;;;;;;15.12;42.68;100713.36;1860410;77;20915;-91
2022/09/11 07:06:18;;;;;;;3.58;1.77;;;;;;;15.16;42.90;100719.23;1860675;77;20918;-89
2022/09/11 07:08:57;;;;;;;3.45;2.27;;;;;;;15.18;42.58;100718.63;1860638;76;21246;-89
2022/09/11 07:11:23;;;;;;;3.02;1.62;;;;;;;15.20;42.59;100720.67;1860747;77;21384;-90
2022/09/11 07:13:52;;;;;;;8.13;2.15;;;;;;;15.19;42.07;100727.77;1860644;77;21317;-90
2022/09/11 07:16:19;;;;;;;6.53;2.20;;;;;;;15.19;42.07;100727.77;1860227;77;21439;-90
2022/09/11 07:18:49;;;;;;;3.45;2.08;;;;;;;15.20;42.84;100736.53;1860214;77;21396;-90
2022/09/11 07:21:22;;;;;;;4.83;1.85;;;;;;;15.20;42.97;100729.92;1862361;77;21125;-92
2022/09/11 07:23:53;;;;;;;5.95;2.45;;;;;;;15.23;42.90;100727.03;1860568;76;20887;-91
2022/09/11 07:26:21;;;;;;;5.85;1.72;;;;;;;15.26;43.12;100736.06;1860869;76;20887;-88
2022/09/11 07:28:50;;;;;;;10.25;7.67;;;;;;;15.30;42.89;100732.22;1861015;77;20875;-91
2022/09/11 07:31:20;;;;;;;13.15;7.05;;;;;;;15.31;42.54;100723.31;1860162;77;20970;-91
2022/09/11 07:33:47;;;;;;;5.17;2.65;;;;;;;15.33;42.52;100734.61;1860280;76;21128;-91
2022/09/11 07:36:18;;;;;;;3.10;1.57;;;;;;;15.33;42.52;100734.61;1860494;77;21369;-89
2022/09/11 07:38:48;;;;;;;3.52;2.00;;;;;;;15.33;42.79;100726.69;1860426;77;21000;-92
2022/09/11 07:43:55;;;;;;;5.50;1.85;;;;;;;15.29;42.64;100714.18;1858490;76;20903;-91
2022/09/11 07:46:23;;;;;;;10.15;1.90;;;;;;;15.34;43.01;100707.24;1830012;77;21229;-92
2022/09/11 07:48:50;;;;;;;7.37;2.25;;;;;;;15.34;43.01;100707.24;1861204;77;21428;-91
2022/09/11 07:51:20;;;;;;;73.52;46.92;;;;;;;15.34;42.79;100703.28;1855521;77;20972;-92
2022/09/11 07:53:51;;;;;;;14.43;8.05;;;;;;;15.33;42.76;100707.70;1849974;77;20868;-90
2022/09/11 07:56:24;;;;;;;14.07;4.50;;;;;;;15.35;43.14;100707.59;1823995;77;21477;-93
2022/09/11 07:58:56;;;;;;;7.08;3.47;;;;;;;15.37;43.18;100706.16;1850745;76;21210;-92
2022/09/11 08:01:30;;;;;;;8.73;3.67;;;;;;;15.40;43.42;100715.98;1851773;77;21330;-91
2022/09/11 08:04:00;;;;;;;11.10;2.62;;;;;;;15.43;44.03;100718.86;1852457;77;28189;-91
2022/09/11 08:06:29;;;;;;;8.55;3.02;;;;;;;15.46;43.92;100713.35;1850134;77;20867;-92
2022/09/11 08:09:03;;;;;;;7.90;2.45;;;;;;;15.47;44.44;100714.56;1824974;77;20969;-93
2022/09/11 08:11:47;;;;;;;10.23;2.83;;;;;;;15.49;43.85;100711.78;1828101;77;21162;-92
2022/09/11 08:14:16;;;;;;;12.82;3.42;;;;;;;15.39;43.51;100694.50;1818243;79;21051;-91
2022/09/11 08:16:44;;;;;;;10.88;2.90;;;;;;;15.48;43.70;100714.91;1816828;79;20877;-93
2022/09/11 08:19:21;;;;;;;9.55;3.72;;;;;;;15.53;43.52;100717.19;1816699;78;20894;-91
2022/09/11 08:21:51;;;;;;;9.00;2.45;;;;;;;15.54;44.00;100713.59;1815984;78;20976;-91
2022/09/11 08:24:23;;;;;;;11.08;3.22;;;;;;;15.53;45.10;100701.33;1816623;78;20998;-92
2022/09/11 08:26:51;;;;;;;13.93;2.85;;;;;;;15.53;45.10;100701.33;1816946;78;20948;-91
2022/09/11 08:29:19;;;;;;;10.50;3.00;;;;;;;15.52;44.57;100703.14;1816788;79;20932;-91
2022/09/11 08:31:47;;;;;;;14.70;2.72;;;;;;;15.50;45.58;100708.19;1816062;79;21346;-90
2022/09/11 08:34:14;;;;;;;8.98;2.83;;;;;;;15.49;44.78;100705.17;1816317;78;20873;-93
2022/09/11 08:36:41;;;;;;;6.97;2.90;;;;;;;15.49;46.03;100691.95;1816310;78;21757;-91
2022/09/11 08:39:08;;;;;;;10.53;3.05;;;;;;;15.49;46.03;100691.95;1816509;79;20968;-92
2022/09/11 08:41:48;;;;;;;12.75;3.27;;;;;;;15.47;46.02;100696.52;1816268;78;20834;-93
2022/09/11 08:44:27;;;;;;;15.25;2.85;;;;;;;15.45;46.02;100693.16;1816438;78;21425;-93
2022/09/11 08:47:06;;;;;;;12.90;5.95;;;;;;;15.41;46.95;100679.36;1817551;78;21299;-91
2022/09/11 08:49:45;;;;;;;16.87;7.92;;;;;;;15.40;46.71;100682.95;1791837;78;21218;-91
2022/09/11 08:52:14;;;;;;;11.55;4.55;;;;;;;15.37;48.48;100691.13;1806324;78;21375;-92
2022/09/11 08:54:44;;;;;;;9.10;3.45;;;;;;;15.37;48.48;100691.13;1802899;79;20922;-95
2022/09/11 08:57:43;;;;;;;9.38;3.55;;;;;;;15.38;50.18;100682.72;1750850;79;21401;-93
2022/09/11 09:00:21;;;;;;;17.95;4.35;;;;;;;15.36;50.94;100687.28;1802402;79;21502;-93
2022/09/11 09:03:24;;;;;;;12.35;4.03;;;;;;;15.32;50.70;100680.93;1801251;78;21127;-92
2022/09/11 09:06:09;;;;;;;12.50;4.78;;;;;;;15.29;51.55;100688.24;1797023;79;21407;-92
2022/09/11 09:08:57;;;;;;;24.63;6.00;;;;;;;15.25;51.45;100684.16;1754992;79;20878;-92
2022/09/11 09:12:00;;;;;;;14.68;4.95;;;;;;;15.22;51.47;100689.70;1753566;80;20942;-93
2022/09/11 09:15:06;;;;;;;17.02;5.35;;;;;;;15.18;56.00;100700.97;1753476;80;20847;-92
2022/09/11 09:18:02;;;;;;;16.17;5.62;;;;;;;15.11;57.26;100693.17;1753820;81;21266;-93
2022/09/11 09:20:37;;;;;;;16.75;5.78;;;;;;;14.89;56.68;100682.94;1753461;81;20933;-91
2022/09/11 09:23:28;;;;;;;12.93;5.65;;;;;;;14.89;56.68;100682.94;1752742;80;20887;-91
2022/09/11 09:25:56;;;;;;;15.55;5.95;;;;;;;14.78;54.92;100665.77;1753903;80;20963;-93
2022/09/11 09:28:43;;;;;;;16.52;6.35;;;;;;;14.75;54.39;100665.19;1756097;79;20954;-90
2022/09/11 09:31:13;;;;;;;13.08;6.65;;;;;;;14.75;54.39;100665.19;1755833;80;21152;-87
2022/09/11 09:34:01;;;;;;;14.63;6.15;;;;;;;14.68;53.99;100659.53;1729766;80;21372;-90
2022/09/11 09:36:41;;;;;;;17.87;7.15;;;;;;;14.69;54.92;100659.88;1754807;80;20978;-91
2022/09/11 09:39:13;;;;;;;16.97;5.53;;;;;;;14.69;54.92;100659.88;1731596;81;21385;-91
2022/09/11 09:42:27;;;;;;;15.90;5.00;;;;;;;14.69;56.11;100650.64;1755137;81;20997;-91
2022/09/11 09:45:17;;;;;;;;;;;;;;;14.68;57.14;100648.97;1756348;80;21161;-90
2022/09/11 09:47:45;;;;;;;11.00;5.12;;;;;;;14.70;58.15;100676.09;1786507;79;20380;-90
2022/09/11 09:50:22;;;;;;;12.93;5.30;;;;;;;14.68;60.59;100666.97;1775300;79;20953;-92
2022/09/11 09:52:49;;;;;;;11.45;4.58;;;;;;;14.66;61.38;100664.09;1802193;77;20978;-91
2022/09/11 09:55:18;;;;;;;15.63;5.17;;;;;;;14.62;62.18;100672.70;1802269;78;20902;-93
2022/09/11 09:57:44;;;;;;;11.88;4.95;;;;;;;14.60;62.72;100668.02;1801984;78;21249;-93
2022/09/11 10:00:18;;;;;;;11.25;4.33;;;;;;;14.61;63.85;100664.92;1802096;79;20918;-94
2022/09/11 10:02:54;;;;;;;8.18;4.28;;;;;;;14.60;64.84;100657.95;1802352;79;21590;-93
2022/09/11 10:05:31;;;;;;;8.30;3.40;;;;;;;14.61;65.61;100651.24;1802035;79;20919;-93
2022/09/11 10:08:03;;;;;;;12.50;3.40;;;;;;;14.61;65.47;100640.69;1800704;79;21462;-92
2022/09/11 10:10:35;;;;;;;12.18;3.33;;;;;;;14.59;63.83;100629.89;1803411;79;21141;-94
2022/09/11 10:13:07;;;;;;;11.25;3.15;;;;;;;14.58;62.76;100607.91;1803989;78;20926;-93
2022/09/11 10:15:39;;;;;;;6.87;3.25;;;;;;;14.58;62.76;100607.91;1803640;79;20910;-91
2022/09/11 10:18:34;;;;;;;10.72;3.95;;;;;;;14.58;63.00;100593.39;1805644;79;20860;-89
2022/09/11 10:21:16;;;;;;;9.90;3.50;;;;;;;14.62;63.36;100580.33;1756238;81;20990;-92
2022/09/11 10:23:59;;;;;;;9.45;3.72;;;;;;;14.66;63.31;100575.17;1754320;81;21144;-91
2022/09/11 10:26:39;;;;;;;9.35;4.05;;;;;;;14.68;63.57;100569.30;1754709;81;20871;-93
2022/09/11 10:29:17;;;;;;;5.95;4.20;;;;;;;14.71;63.66;100571.69;1754110;80;20914;-92
2022/09/11 10:31:50;;;;;;;7.92;3.42;;;;;;;14.74;63.35;100568.45;1753546;80;20887;-94
2022/09/11 10:34:23;;;;;;;16.12;3.98;;;;;;;14.77;62.77;100579.63;1753580;80;20887;-91
2022/09/11 10:36:59;;;;;;;7.75;4.17;;;;;;;14.83;61.80;100576.52;1753528;81;21319;-92
2022/09/11 10:39:26;;;;;;;7.53;4.22;;;;;;;14.87;61.52;100579.73;1753652;80;20899;-92
2022/09/11 10:41:55;;;;;;;5.28;3.55;;;;;;;14.95;61.48;100596.30;1753390;81;21504;-94
2022/09/11 10:44:21;;;;;;;11.65;5.33;;;;;;;15.01;61.49;100600.63;1753575;80;20990;-92
2022/09/11 10:47:17;;;;;;;12.85;5.78;;;;;;;15.06;62.32;100596.30;1753644;81;21052;-92
2022/09/11 10:49:45;;;;;;;8.40;5.25;;;;;;;15.12;62.48;100595.33;1753601;81;21890;-91
2022/09/11 10:52:18;;;;;;;9.80;5.00;;;;;;;15.19;63.48;100597.00;1753643;80;20938;-92
2022/09/11 10:56:04;;;;;;;9.73;4.50;;;;;;;15.38;65.03;100583.63;1800404;78;23300;-94
2022/09/11 10:58:35;;;;;;;12.28;5.95;;;;;;;15.50;66.05;100578.68;1759205;80;21034;-91
2022/09/11 11:01:02;;;;;;;9.48;5.15;;;;;;;15.73;65.68;100577.65;1697829;83;21904;-93
2022/09/11 11:03:29;;;;;;;14.20;6.45;;;;;;;16.05;64.54;100571.52;1725448;81;20847;-93
2022/09/11 11:06:28;;;;;;;11.43;7.35;;;;;;;16.51;63.62;100578.66;1728033;81;20954;-92
2022/09/11 11:09:19;;;;;;;10.58;7.00;;;;;;;16.94;61.99;100572.31;1728127;81;20939;-94
2022/09/11 11:12:18;;;;;;;12.95;7.72;;;;;;;17.33;59.46;100565.30;1726086;82;20922;-92
2022/09/11 11:15:16;;;;;;;10.65;6.47;;;;;;;17.54;58.81;100555.93;1725629;83;21407;-93
2022/09/11 11:18:22;;;;;;;9.18;5.20;;;;;;;17.69;58.14;100556.33;1725833;83;20950;-92
2022/09/11 11:21:13;;;;;;;7.72;4.97;;;;;;;17.80;57.92;100546.06;1668325;85;20994;-92
2022/09/11 11:24:26;;;;;;;9.60;4.53;;;;;;;17.86;57.44;100538.08;1668102;85;20953;-92
2022/09/11 11:27:35;;;;;;;7.60;4.30;;;;;;;17.90;57.07;100540.31;1669202;86;21028;-92
2022/09/11 11:30:16;;;;;;;9.85;4.20;;;;;;;17.94;56.13;100547.02;1668122;85;21580;-92
2022/09/11 11:33:09;;;;;;;9.80;5.03;;;;;;;17.99;56.51;100532.82;1692557;84;20985;-94
2022/09/11 11:35:57;;;;;;;9.50;4.60;;;;;;;18.04;56.63;100519.13;1668315;85;20951;-93
2022/09/11 11:38:32;;;;;;;8.20;4.22;;;;;;;18.10;56.17;100506.61;1666210;83;21003;-93
2022/09/11 11:41:06;;;;;;;7.58;4.47;;;;;;;18.10;56.39;100513.75;1693954;84;20977;-93
2022/09/11 11:43:36;;;;;;;14.33;8.85;;;;;;;18.11;55.68;100508.77;1666810;84;21175;-94
2022/09/11 11:46:32;;;;;;;6.83;3.60;;;;;;;18.09;54.90;100506.25;1667210;84;20944;-93
2022/09/11 11:49:05;;;;;;;8.23;5.33;;;;;;;18.04;53.88;100492.59;1694030;84;20915;-91
2022/09/11 11:51:36;;;;;;;7.42;3.95;;;;;;;17.96;53.86;100484.03;1667479;85;21023;-92
2022/09/11 11:54:26;;;;;;;6.33;3.83;;;;;;;17.90;53.55;100479.29;1667675;84;20999;-94
2022/09/11 11:56:55;;;;;;;6.05;3.05;;;;;;;17.87;54.21;100466.78;1673663;85;21346;-92
2022/09/11 11:59:30;;;;;;;5.95;3.37;;;;;;;17.83;54.38;100464.93;1754667;81;21495;-92
2022/09/11 12:02:13;;;;;;;7.17;4.03;;;;;;;17.82;54.08;100457.93;1753215;80;20896;-93